Time;durP1;ratioP1;P1;durP2;ratioP2;P2;SDS_P1;SDS_P2;PMS_P1;PMS_P2;Temp;Humidity;BMP_temperature;BMP_pressure;BME280_temperature;BME280_humidity;BME280_pressure;Samples;Min_cycle;Max_cycle;Signal;HPM_P1;HPM_P2
2021/08/09 00:02:00;;;;;;;6.63;4.83;;;16.10;99.90;;;;;;4940165;29;20829;-90
2021/08/09 00:04:26;;;;;;;5.47;4.03;;;16.00;99.90;;;;;;4965711;23;20497;-87
2021/08/09 00:06:53;;;;;;;4.63;3.70;;;16.00;99.90;;;;;;4937274;29;20481;-87
2021/08/09 00:09:20;;;;;;;5.97;4.27;;;16.10;99.90;;;;;;4937217;29;20449;-87
2021/08/09 00:11:47;;;;;;;6.20;3.50;;;16.10;99.90;;;;;;4937132;29;20886;-88
2021/08/09 00:14:15;;;;;;;4.10;3.70;;;16.00;99.90;;;;;;4922822;29;20552;-87
2021/08/09 00:16:42;;;;;;;4.50;3.90;;;16.10;99.90;;;;;;4917567;29;20832;-87
2021/08/09 00:19:08;;;;;;;5.53;3.83;;;16.00;99.90;;;;;;4918126;29;20482;-87
2021/08/09 00:21:35;;;;;;;5.93;3.83;;;16.00;99.90;;;;;;4932053;29;20427;-86
2021/08/09 00:24:02;;;;;;;6.03;4.10;;;16.00;99.90;;;;;;4940059;29;20465;-87
2021/08/09 00:26:29;;;;;;;5.20;4.30;;;16.00;99.90;;;;;;4921594;29;20469;-88
2021/08/09 00:28:56;;;;;;;4.57;3.60;;;16.00;99.90;;;;;;4937347;29;21018;-87
2021/08/09 00:31:24;;;;;;;4.07;3.40;;;16.00;99.90;;;;;;4937238;29;20451;-87
2021/08/09 00:33:51;;;;;;;5.03;3.90;;;16.00;99.90;;;;;;4938686;29;20476;-87
2021/08/09 00:36:17;;;;;;;5.90;3.63;;;15.90;99.90;;;;;;4953106;29;20458;-87
2021/08/09 00:38:44;;;;;;;5.90;3.13;;;15.90;99.90;;;;;;4947264;29;20488;-87
2021/08/09 00:41:11;;;;;;;4.10;3.47;;;15.90;99.90;;;;;;4940436;29;20457;-87
2021/08/09 00:43:38;;;;;;;4.63;3.40;;;15.90;99.90;;;;;;4936911;29;20470;-87
2021/08/09 00:46:05;;;;;;;4.07;3.20;;;15.90;99.90;;;;;;4946716;29;20442;-87
2021/08/09 00:48:34;;;;;;;5.10;3.63;;;15.80;99.90;;;;;;4950593;29;20438;-87
2021/08/09 00:51:02;;;;;;;7.67;4.10;;;15.80;99.90;;;;;;4954771;29;20478;-87
2021/08/09 00:53:29;;;;;;;4.47;3.37;;;15.70;99.90;;;;;;4956650;29;20493;-87
2021/08/09 00:55:55;;;;;;;4.60;3.60;;;15.70;99.90;;;;;;4941506;29;20450;-87
2021/08/09 00:58:23;;;;;;;3.57;2.63;;;15.70;99.90;;;;;;4928232;29;20493;-87
2021/08/09 01:00:49;;;;;;;5.00;3.30;;;15.60;99.90;;;;;;4924191;29;20841;-87
2021/08/09 01:03:16;;;;;;;4.07;2.87;;;15.70;99.90;;;;;;4919385;29;20487;-87
2021/08/09 01:05:48;;;;;;;6.93;3.37;;;15.70;99.90;;;;;;4919496;29;20804;-87
2021/08/09 01:08:22;;;;;;;3.63;3.20;;;15.70;99.90;;;;;;4921683;29;20450;-87
2021/08/09 01:10:56;;;;;;;5.67;4.27;;;15.60;99.90;;;;;;4932556;29;20449;-87
2021/08/09 01:13:26;;;;;;;5.40;3.47;;;15.70;99.90;;;;;;4938233;29;20585;-87
2021/08/09 01:15:59;;;;;;;6.87;3.83;;;15.60;99.90;;;;;;4952425;29;20454;-87
2021/08/09 01:18:29;;;;;;;5.53;4.00;;;15.60;99.90;;;;;;4954806;29;20469;-87
2021/08/09 01:21:00;;;;;;;5.20;3.47;;;15.50;99.90;;;;;;4957170;29;20438;-87
2021/08/09 01:23:48;;;;;;;5.20;3.73;;;15.40;99.90;;;;;;4947914;29;20466;-87
2021/08/09 01:26:24;;;;;;;5.27;3.70;;;15.40;99.90;;;;;;4945115;29;20434;-87
2021/08/09 01:28:56;;;;;;;5.43;2.97;;;15.40;99.90;;;;;;4942335;29;20451;-87
2021/08/09 01:31:25;;;;;;;3.57;3.20;;;15.50;99.90;;;;;;4948535;29;20459;-88
2021/08/09 01:33:52;;;;;;;3.40;2.83;;;15.50;99.90;;;;;;4943323;29;20459;-87
2021/08/09 01:36:19;;;;;;;5.27;4.20;;;15.40;99.90;;;;;;4944103;29;20461;-87
2021/08/09 01:38:47;;;;;;;7.73;3.50;;;15.50;99.90;;;;;;4943380;29;20485;-87
2021/08/09 01:41:15;;;;;;;4.80;3.90;;;15.40;99.90;;;;;;4942790;29;20488;-87
2021/08/09 01:43:42;;;;;;;4.93;4.37;;;15.40;99.90;;;;;;4944894;29;20488;-88
2021/08/09 01:46:12;;;;;;;4.03;3.30;;;15.30;99.90;;;;;;4919396;29;20460;-88
2021/08/09 01:48:40;;;;;;;4.20;3.47;;;15.30;99.90;;;;;;4916354;29;20546;-88
2021/08/09 01:51:07;;;;;;;3.90;3.13;;;15.30;99.90;;;;;;4917914;29;20459;-87
2021/08/09 01:53:34;;;;;;;7.20;3.53;;;15.20;99.90;;;;;;4916737;29;20475;-88
2021/08/09 01:56:02;;;;;;;5.90;3.70;;;15.10;99.90;;;;;;4917164;29;20454;-87
2021/08/09 01:58:29;;;;;;;4.50;3.47;;;15.10;99.90;;;;;;4917003;29;20594;-88
2021/08/09 02:00:56;;;;;;;4.33;3.77;;;15.00;99.90;;;;;;4918878;29;20462;-87
2021/08/09 02:03:24;;;;;;;3.80;3.37;;;15.00;99.90;;;;;;4917458;29;20474;-87
2021/08/09 02:05:51;;;;;;;4.50;3.70;;;15.10;99.90;;;;;;4928146;29;20446;-87
2021/08/09 02:08:17;;;;;;;3.97;3.67;;;15.10;99.90;;;;;;4938699;29;20514;-88
2021/08/09 02:10:53;;;;;;;6.93;3.87;;;15.10;99.90;;;;;;4940996;29;20450;-87
2021/08/09 02:13:26;;;;;;;5.90;4.00;;;15.20;99.90;;;;;;4935608;29;20477;-88
2021/08/09 02:15:57;;;;;;;4.63;3.80;;;15.10;99.90;;;;;;4935382;29;20446;-89
2021/08/09 02:18:31;;;;;;;5.33;4.13;;;15.10;99.90;;;;;;4934617;29;20485;-88
2021/08/09 02:21:02;;;;;;;7.70;4.63;;;15.00;99.90;;;;;;4940582;29;20455;-87
2021/08/09 02:23:37;;;;;;;6.93;4.10;;;14.90;99.90;;;;;;4943640;29;20472;-88
2021/08/09 02:26:05;;;;;;;10.97;5.30;;;15.00;99.90;;;;;;4939835;29;20452;-88
2021/08/09 02:28:34;;;;;;;7.07;4.27;;;15.00;99.90;;;;;;4937056;29;20441;-88
2021/08/09 02:31:04;;;;;;;5.10;4.43;;;15.10;99.90;;;;;;4958986;29;20437;-88
2021/08/09 02:33:33;;;;;;;4.87;4.37;;;15.00;99.90;;;;;;4949989;29;20480;-88
2021/08/09 02:36:02;;;;;;;4.53;4.13;;;14.90;99.90;;;;;;4939005;29;20445;-88
2021/08/09 02:38:31;;;;;;;7.83;5.33;;;14.90;99.90;;;;;;4938500;29;20496;-88
2021/08/09 02:40:58;;;;;;;6.13;4.70;;;15.00;99.90;;;;;;4938140;29;20459;-88
2021/08/09 02:43:27;;;;;;;7.97;5.60;;;14.90;99.90;;;;;;4938032;29;20478;-89
2021/08/09 02:45:55;;;;;;;4.80;4.30;;;14.80;99.90;;;;;;4938542;29;20452;-88
2021/08/09 02:48:22;;;;;;;5.60;4.23;;;14.80;99.90;;;;;;4934349;29;20450;-88
2021/08/09 02:50:50;;;;;;;5.77;4.20;;;14.80;99.90;;;;;;4918902;29;20460;-88
2021/08/09 02:53:18;;;;;;;6.87;4.53;;;14.70;99.90;;;;;;4919419;29;20463;-88
2021/08/09 02:55:46;;;;;;;6.37;5.40;;;14.70;99.90;;;;;;4919148;29;20480;-88
2021/08/09 02:58:14;;;;;;;5.50;4.30;;;14.70;99.90;;;;;;4926605;29;20448;-88
2021/08/09 03:00:41;;;;;;;5.80;4.90;;;14.60;99.90;;;;;;4927679;29;20453;-88
2021/08/09 03:03:08;;;;;;;5.10;4.60;;;14.50;99.90;;;;;;4921967;29;20478;-88
2021/08/09 03:05:36;;;;;;;5.70;5.10;;;14.50;99.90;;;;;;4923499;29;20434;-88
2021/08/09 03:08:05;;;;;;;8.73;4.67;;;14.50;99.90;;;;;;4938595;29;20474;-88
2021/08/09 03:10:31;;;;;;;6.90;4.70;;;14.40;99.90;;;;;;4922168;29;20492;-87
2021/08/09 03:12:59;;;;;;;10.60;5.20;;;14.40;99.90;;;;;;4919725;29;20483;-88
2021/08/09 03:15:26;;;;;;;6.23;4.30;;;14.40;99.90;;;;;;4919330;29;20747;-88
2021/08/09 03:17:53;;;;;;;5.50;4.43;;;14.30;99.90;;;;;;4931019;29;20450;-88
2021/08/09 03:20:20;;;;;;;7.40;4.23;;;14.30;99.90;;;;;;4938267;29;20515;-88
2021/08/09 03:22:47;;;;;;;9.80;5.27;;;14.30;99.90;;;;;;4941472;29;20487;-88
2021/08/09 03:25:15;;;;;;;5.20;4.03;;;14.20;99.90;;;;;;4959030;29;20447;-88
2021/08/09 03:27:41;;;;;;;4.70;3.70;;;14.20;99.90;;;;;;4940891;29;20456;-88
2021/08/09 03:30:09;;;;;;;13.03;4.90;;;14.30;99.90;;;;;;4928833;29;20450;-88
2021/08/09 03:32:36;;;;;;;5.67;5.07;;;14.30;99.90;;;;;;4934454;29;20490;-88
2021/08/09 03:35:02;;;;;;;6.77;5.37;;;14.20;99.90;;;;;;4932752;29;20453;-88
2021/08/09 03:37:29;;;;;;;7.43;4.73;;;14.30;99.90;;;;;;4922599;29;20462;-88
2021/08/09 03:39:56;;;;;;;6.00;5.07;;;14.30;99.90;;;;;;4931364;29;21003;-88
2021/08/09 03:42:24;;;;;;;7.10;5.70;;;14.30;99.90;;;;;;4932900;29;20453;-87
2021/08/09 03:44:50;;;;;;;7.07;5.03;;;14.30;99.90;;;;;;4940211;29;20453;-87
2021/08/09 03:47:17;;;;;;;9.13;4.20;;;14.30;99.90;;;;;;4935315;29;20438;-87
2021/08/09 03:49:44;;;;;;;12.03;5.00;;;14.30;99.90;;;;;;4934263;29;20449;-87
2021/08/09 03:52:10;;;;;;;9.47;4.40;;;14.30;99.90;;;;;;4922358;29;20439;-87
2021/08/09 03:54:37;;;;;;;6.47;4.53;;;14.30;99.90;;;;;;4921676;29;20545;-87
2021/08/09 03:57:04;;;;;;;6.63;4.27;;;14.30;99.90;;;;;;4928215;29;20466;-87
2021/08/09 03:59:32;;;;;;;5.60;4.10;;;14.30;99.90;;;;;;4929915;29;20496;-87
2021/08/09 04:01:58;;;;;;;6.70;5.57;;;14.50;99.90;;;;;;4921181;29;20462;-87
2021/08/09 04:04:25;;;;;;;5.10;4.10;;;14.50;99.90;;;;;;4919414;29;20494;-88
2021/08/09 04:06:52;;;;;;;5.97;5.37;;;14.50;99.90;;;;;;4919810;29;20450;-87
2021/08/09 04:09:19;;;;;;;7.20;5.00;;;14.50;99.90;;;;;;4918198;29;20477;-87
2021/08/09 04:11:45;;;;;;;8.83;5.93;;;14.50;99.90;;;;;;4919135;29;20458;-87
2021/08/09 04:14:12;;;;;;;6.07;4.90;;;14.40;99.90;;;;;;4927438;29;20515;-88
2021/08/09 04:16:40;;;;;;;8.83;5.10;;;14.40;99.90;;;;;;4936776;29;20463;-87
2021/08/09 04:19:07;;;;;;;6.53;5.07;;;14.40;99.90;;;;;;4950019;29;20477;-86
2021/08/09 04:21:34;;;;;;;8.53;5.23;;;14.40;99.90;;;;;;4960372;29;20455;-87
2021/08/09 04:24:00;;;;;;;5.00;4.50;;;14.30;99.90;;;;;;4947247;29;20480;-87
2021/08/09 04:26:27;;;;;;;5.70;3.90;;;14.30;99.90;;;;;;4947912;29;20536;-87
2021/08/09 04:28:54;;;;;;;6.13;4.93;;;14.20;99.90;;;;;;4950840;29;20449;-87
2021/08/09 04:31:21;;;;;;;5.03;4.33;;;14.20;99.90;;;;;;4951725;29;20438;-87
2021/08/09 04:33:50;;;;;;;4.50;4.00;;;14.20;99.90;;;;;;4938283;29;20553;-88
2021/08/09 04:36:17;;;;;;;8.13;5.50;;;14.20;99.90;;;;;;4939763;29;20484;-87
2021/08/09 04:38:44;;;;;;;7.23;4.83;;;14.20;99.90;;;;;;4952319;29;20456;-87
2021/08/09 04:41:13;;;;;;;8.17;4.73;;;14.20;99.90;;;;;;4946723;29;20983;-87
2021/08/09 04:43:41;;;;;;;6.00;4.43;;;14.20;99.90;;;;;;4925144;29;20474;-86
2021/08/09 04:46:09;;;;;;;5.27;4.43;;;14.20;99.90;;;;;;4925878;29;20455;-87
2021/08/09 04:48:35;;;;;;;6.23;4.50;;;14.10;99.90;;;;;;4919847;29;20462;-87
2021/08/09 04:51:04;;;;;;;5.80;4.30;;;14.10;99.90;;;;;;4917739;29;20453;-87
2021/08/09 04:53:31;;;;;;;5.57;4.40;;;14.10;99.90;;;;;;4917573;29;20470;-87
2021/08/09 04:55:57;;;;;;;7.90;5.10;;;14.20;99.90;;;;;;4917546;29;20901;-87
2021/08/09 04:58:24;;;;;;;7.23;4.67;;;14.30;99.90;;;;;;4916996;29;20439;-87
2021/08/09 05:00:51;;;;;;;6.23;4.90;;;14.30;99.90;;;;;;4917950;29;20483;-87
2021/08/09 05:03:18;;;;;;;4.37;3.90;;;14.40;99.90;;;;;;4916827;29;20493;-87
2021/08/09 05:05:45;;;;;;;6.47;5.10;;;14.50;99.90;;;;;;4917265;29;20450;-87
2021/08/09 05:08:13;;;;;;;7.63;4.63;;;14.60;99.90;;;;;;4916502;29;20462;-87
2021/08/09 05:10:40;;;;;;;7.93;4.53;;;14.90;99.90;;;;;;4921460;29;20451;-87
2021/08/09 05:13:07;;;;;;;9.30;4.93;;;15.30;99.90;;;;;;4925387;29;20476;-87
2021/08/09 05:15:35;;;;;;;6.23;5.00;;;15.50;99.90;;;;;;4934768;29;20463;-87
2021/08/09 05:18:02;;;;;;;6.10;4.90;;;15.70;99.90;;;;;;4943366;29;20933;-87
2021/08/09 05:20:29;;;;;;;7.67;5.30;;;16.00;99.90;;;;;;4958431;29;20493;-86
2021/08/09 05:22:56;;;;;;;5.07;4.57;;;16.40;99.90;;;;;;4955668;29;20474;-88
2021/08/09 05:25:25;;;;;;;5.40;4.30;;;16.50;99.90;;;;;;4941438;29;20443;-87
2021/08/09 05:27:51;;;;;;;4.43;4.03;;;16.50;99.90;;;;;;4928867;29;20453;-88
2021/08/09 05:30:18;;;;;;;6.77;4.40;;;16.70;99.90;;;;;;4919552;29;20451;-88
2021/08/09 05:32:45;;;;;;;9.80;6.00;;;17.10;99.90;;;;;;4916113;29;20450;-88
2021/08/09 05:35:11;;;;;;;8.37;5.80;;;17.40;99.90;;;;;;4917087;29;20455;-88
2021/08/09 05:37:38;;;;;;;10.30;6.40;;;17.90;99.90;;;;;;4935074;29;20468;-88
2021/08/09 05:40:07;;;;;;;10.07;6.40;;;18.40;99.90;;;;;;4930024;29;20914;-87
2021/08/09 05:42:35;;;;;;;8.20;4.47;;;18.80;99.90;;;;;;4918340;29;20515;-88
2021/08/09 05:45:02;;;;;;;6.70;5.97;;;19.20;99.90;;;;;;4917814;29;20456;-88
2021/08/09 05:47:29;;;;;;;12.30;5.20;;;19.60;99.90;;;;;;4918254;29;20831;-87
2021/08/09 05:49:56;;;;;;;11.97;5.27;;;19.90;99.30;;;;;;4918712;29;20454;-88
2021/08/09 05:52:24;;;;;;;6.40;4.80;;;20.40;98.20;;;;;;4936537;29;20460;-88
2021/08/09 05:54:51;;;;;;;7.50;4.50;;;20.60;96.70;;;;;;4934606;29;20462;-88
2021/08/09 05:57:18;;;;;;;4.60;4.20;;;20.70;96.50;;;;;;4925614;29;20461;-87
2021/08/09 05:59:46;;;;;;;8.17;4.40;;;20.80;96.00;;;;;;4929576;29;20479;-87
2021/08/09 06:02:13;;;;;;;8.80;4.50;;;21.20;95.40;;;;;;4943167;29;20458;-87
2021/08/09 06:04:39;;;;;;;7.23;4.50;;;21.40;94.60;;;;;;4947779;29;20483;-87
2021/08/09 06:07:11;;;;;;;6.67;4.87;;;21.90;93.90;;;;;;4962651;29;20444;-87
2021/08/09 06:09:38;;;;;;;6.07;3.87;;;22.10;92.80;;;;;;4964884;29;20427;-87
2021/08/09 06:12:05;;;;;;;3.70;3.07;;;22.00;91.90;;;;;;4961803;29;20452;-88
2021/08/09 06:14:32;;;;;;;3.93;3.13;;;22.10;91.70;;;;;;4950045;29;20473;-87
2021/08/09 06:17:00;;;;;;;3.87;3.07;;;22.30;91.10;;;;;;4936963;29;20480;-87
2021/08/09 06:19:27;;;;;;;5.00;2.63;;;22.50;90.70;;;;;;4930038;29;20461;-87
2021/08/09 06:21:54;;;;;;;5.07;2.70;;;22.70;89.80;;;;;;4935109;29;20457;-86
2021/08/09 06:24:21;;;;;;;2.80;2.57;;;22.90;89.50;;;;;;4939941;29;20481;-87
2021/08/09 06:26:48;;;;;;;3.10;2.90;;;23.30;87.50;;;;;;4951159;29;20453;-87
2021/08/09 06:29:15;;;;;;;4.13;2.93;;;23.60;86.50;;;;;;4948398;29;20451;-86
2021/08/09 06:31:41;;;;;;;3.70;3.10;;;23.80;85.10;;;;;;4937982;29;20451;-87
2021/08/09 06:34:09;;;;;;;3.40;3.10;;;23.80;84.40;;;;;;4948933;29;20480;-87
2021/08/09 06:36:36;;;;;;;5.60;2.50;;;23.90;83.50;;;;;;4949126;29;20452;-87
2021/08/09 06:39:03;;;;;;;3.20;2.83;;;24.30;82.20;;;;;;4948454;29;20438;-87
2021/08/09 06:41:32;;;;;;;4.40;3.07;;;24.70;81.30;;;;;;4948914;29;20481;-87
2021/08/09 06:43:59;;;;;;;6.30;3.03;;;24.90;79.30;;;;;;4942043;29;20565;-87
2021/08/09 06:46:26;;;;;;;3.23;2.80;;;24.80;78.30;;;;;;4947425;29;20953;-80
2021/08/09 06:48:52;;;;;;;3.53;3.07;;;24.90;78.80;;;;;;4949540;29;20449;-81
2021/08/09 06:51:20;;;;;;;2.90;2.37;;;25.20;77.50;;;;;;4945415;29;20492;-83
2021/08/09 06:53:47;;;;;;;3.63;2.50;;;25.50;76.10;;;;;;4933896;29;20475;-83
2021/08/09 06:56:15;;;;;;;3.90;2.10;;;26.10;74.90;;;;;;4944747;29;20455;-90
2021/08/09 06:58:42;;;;;;;3.97;2.83;;;26.40;74.00;;;;;;4944176;29;20561;-85
2021/08/09 07:01:08;;;;;;;3.40;3.00;;;26.50;71.90;;;;;;4945496;29;20492;-85
2021/08/09 07:03:35;;;;;;;4.93;2.83;;;26.40;72.50;;;;;;4946479;29;20487;-85
2021/08/09 07:06:02;;;;;;;5.23;3.20;;;26.90;72.20;;;;;;4964317;23;20496;-86
2021/08/09 07:08:30;;;;;;;6.20;3.07;;;27.20;70.70;;;;;;4954137;28;20434;-82
2021/08/09 07:10:57;;;;;;;3.30;2.60;;;27.60;68.50;;;;;;4961378;28;20448;-82
2021/08/09 07:13:24;;;;;;;3.33;2.50;;;27.30;67.20;;;;;;4962139;28;20448;-82
2021/08/09 07:15:50;;;;;;;5.20;2.57;;;27.10;69.60;;;;;;4962043;28;20470;-83
2021/08/09 07:18:17;;;;;;;3.17;2.60;;;27.30;67.50;;;;;;4966868;28;20448;-81
2021/08/09 07:20:44;;;;;;;4.47;2.40;;;27.40;67.20;;;;;;4951878;28;20491;-82
2021/08/09 07:23:11;;;;;;;2.33;2.03;;;27.80;68.20;;;;;;4924296;29;20457;-82
2021/08/09 07:25:39;;;;;;;3.90;2.77;;;28.20;66.20;;;;;;4924774;29;20462;-82
2021/08/09 07:28:05;;;;;;;7.93;2.80;;;28.10;64.60;;;;;;4923517;29;20454;-82
2021/08/09 07:34:22;;;;;;;4.03;2.57;;;28.30;65.80;;;;;;4877584;29;20512;-89
2021/08/09 07:36:49;;;;;;;6.60;2.70;;;29.30;62.40;;;;;;4898938;29;20465;-88
2021/08/09 07:39:16;;;;;;;4.50;3.20;;;29.00;61.90;;;;;;4917130;29;20466;-89
2021/08/09 07:41:44;;;;;;;5.70;3.30;;;29.10;61.90;;;;;;4917836;29;20999;-88
2021/08/09 07:44:11;;;;;;;6.53;2.90;;;28.80;62.30;;;;;;4919096;29;20451;-88
2021/08/09 07:46:37;;;;;;;3.13;2.57;;;29.00;61.80;;;;;;4919599;29;20478;-89
2021/08/09 07:49:04;;;;;;;3.70;2.73;;;29.10;61.30;;;;;;4920245;29;20458;-89
2021/08/09 07:51:31;;;;;;;4.60;3.13;;;29.20;61.20;;;;;;4928245;29;20523;-89
2021/08/09 07:53:57;;;;;;;4.83;2.70;;;29.80;60.60;;;;;;4922459;29;20459;-88
2021/08/09 07:56:24;;;;;;;4.00;2.83;;;30.10;59.40;;;;;;4920676;29;20844;-89
2021/08/09 07:58:52;;;;;;;7.30;2.70;;;30.10;58.60;;;;;;4920359;29;20450;-88
2021/08/09 08:01:19;;;;;;;4.20;2.50;;;29.70;59.00;;;;;;4938960;29;20478;-88
2021/08/09 08:03:46;;;;;;;4.20;2.50;;;30.00;59.30;;;;;;4949058;29;20469;-87
2021/08/09 08:06:12;;;;;;;4.80;3.00;;;30.40;58.80;;;;;;4941022;29;20474;-89
2021/08/09 08:08:39;;;;;;;5.17;3.20;;;30.10;57.90;;;;;;4939653;29;20453;-88
2021/08/09 08:11:06;;;;;;;7.57;2.80;;;29.60;58.60;;;;;;4939106;29;20791;-88
2021/08/09 08:13:32;;;;;;;4.10;2.40;;;29.80;59.30;;;;;;4938546;29;20474;-89
2021/08/09 08:16:00;;;;;;;4.80;2.43;;;30.20;58.00;;;;;;4937771;29;20476;-88
2021/08/09 08:18:27;;;;;;;3.23;2.30;;;30.60;57.70;;;;;;4948902;29;20454;-89
2021/08/09 08:20:54;;;;;;;4.97;2.67;;;31.00;57.20;;;;;;4949055;29;20489;-89
2021/08/09 08:23:21;;;;;;;3.87;2.60;;;31.80;56.50;;;;;;4949540;29;20438;-90
2021/08/09 08:25:48;;;;;;;5.20;2.37;;;32.70;54.40;;;;;;4961087;29;20532;-87
2021/08/09 08:28:36;;;;;;;3.23;2.37;;;32.50;53.50;;;;;;4945886;29;20458;-90
2021/08/09 08:41:32;;;;;;;2.67;2.47;;;32.10;53.30;;;;;;4739583;30;20488;-88
2021/08/09 08:44:02;;;;;;;4.13;2.70;;;31.90;52.70;;;;;;4873650;29;20526;-88
2021/08/09 08:46:48;;;;;;;3.23;1.63;;;31.10;53.80;;;;;;4899546;29;20502;-88
2021/08/09 08:49:17;;;;;;;2.47;1.80;;;31.00;54.40;;;;;;4920973;29;20867;-89
2021/08/09 08:51:46;;;;;;;2.90;2.20;;;31.70;52.60;;;;;;4920018;29;20477;-88
2021/08/09 08:54:14;;;;;;;2.87;1.60;;;32.30;53.00;;;;;;4920295;29;20462;-88
2021/08/09 08:56:55;;;;;;;1.60;1.40;;;32.20;50.80;;;;;;4921287;29;20457;-88
2021/08/09 08:59:22;;;;;;;1.97;1.60;;;32.40;50.60;;;;;;4934538;29;20462;-88
2021/08/09 09:01:51;;;;;;;2.70;2.00;;;32.00;51.50;;;;;;4937071;29;20482;-89
2021/08/09 09:04:26;;;;;;;3.47;2.10;;;32.50;50.80;;;;;;4932026;29;20477;-89
2021/08/09 09:07:20;;;;;;;2.23;1.50;;;32.90;50.30;;;;;;4919472;29;20975;-89
2021/08/09 09:13:18;;;;;;;3.33;1.97;;;33.10;48.60;;;;;;4872248;29;20472;-89
2021/08/09 09:19:09;;;;;;;3.67;1.73;;;34.10;47.30;;;;;;4824148;29;20451;-90
2021/08/09 09:21:38;;;;;;;1.87;1.37;;;32.90;47.50;;;;;;4870755;29;20506;-88
2021/08/09 09:24:17;;;;;;;4.23;2.37;;;33.20;48.40;;;;;;4892265;29;20490;-88
2021/08/09 09:26:45;;;;;;;2.30;1.40;;;33.50;48.20;;;;;;4926835;29;20548;-88
2021/08/09 09:29:15;;;;;;;3.50;1.70;;;33.20;47.80;;;;;;4936802;29;20441;-88
2021/08/09 09:31:44;;;;;;;1.70;1.43;;;32.90;48.30;;;;;;4934686;29;20422;-88
2021/08/09 09:34:12;;;;;;;2.77;1.10;;;31.80;48.30;;;;;;4952431;29;20450;-88
2021/08/09 09:36:47;;;;;;;1.30;1.20;;;32.10;47.10;;;;;;4958642;29;20461;-88
2021/08/09 09:39:32;;;;;;;2.73;1.17;;;32.50;46.40;;;;;;4952592;29;20449;-89
2021/08/09 09:42:02;;;;;;;1.97;1.10;;;34.10;44.20;;;;;;4939231;29;20500;-89
2021/08/09 09:44:32;;;;;;;2.33;1.10;;;35.60;42.20;;;;;;4937501;29;20465;-88
2021/08/09 09:47:21;;;;;;;2.23;1.67;;;36.50;40.50;;;;;;4940759;29;20452;-88
2021/08/09 09:49:49;;;;;;;2.23;1.17;;;35.30;39.50;;;;;;4937640;29;20825;-88
2021/08/09 09:52:36;;;;;;;1.40;1.00;;;35.00;40.20;;;;;;4937050;29;20452;-89
2021/08/09 09:55:06;;;;;;;2.17;1.10;;;34.40;40.40;;;;;;4935803;29;20522;-88
2021/08/09 09:57:34;;;;;;;2.27;1.10;;;34.10;42.20;;;;;;4936536;29;20438;-90
2021/08/09 10:00:03;;;;;;;1.70;1.27;;;34.90;41.80;;;;;;4944813;28;20453;-89
2021/08/09 10:02:30;;;;;;;1.50;1.20;;;35.10;39.40;;;;;;4943029;28;20486;-88
2021/08/09 10:04:57;;;;;;;1.20;1.10;;;35.00;38.50;;;;;;4949694;28;20965;-88
2021/08/09 10:07:25;;;;;;;2.70;1.20;;;35.00;38.60;;;;;;4948155;28;20444;-89
2021/08/09 10:09:54;;;;;;;2.93;1.33;;;34.10;41.30;;;;;;4952903;28;20457;-87
2021/08/09 10:12:25;;;;;;;1.30;0.90;;;34.80;39.70;;;;;;4947797;28;20455;-89
2021/08/09 10:14:53;;;;;;;1.53;1.00;;;34.30;39.80;;;;;;4940562;29;20857;-89
2021/08/09 10:17:27;;;;;;;3.03;1.00;;;34.50;40.50;;;;;;4934972;29;21023;-88
2021/08/09 10:19:56;;;;;;;1.67;1.10;;;35.80;39.60;;;;;;4925156;29;20452;-89
2021/08/09 10:22:24;;;;;;;3.60;1.30;;;36.90;37.20;;;;;;4965034;28;20489;-89
2021/08/09 10:24:53;;;;;;;3.33;1.60;;;38.00;36.60;;;;;;4938225;29;20477;-89
2021/08/09 10:27:53;;;;;;;2.13;1.10;;;38.70;35.20;;;;;;4919483;29;20462;-88
2021/08/09 10:30:21;;;;;;;2.03;1.60;;;39.00;34.50;;;;;;4919988;29;20520;-89
2021/08/09 10:32:52;;;;;;;1.40;1.00;;;38.80;34.90;;;;;;4956162;29;20426;-89
2021/08/09 10:36:02;;;;;;;2.80;1.53;;;39.10;33.40;;;;;;4959654;29;20473;-89
2021/08/09 10:38:43;;;;;;;1.93;1.20;;;38.20;34.40;;;;;;4954137;29;20497;-91
2021/08/09 10:41:30;;;;;;;1.87;1.27;;;36.90;34.90;;;;;;4959210;29;20461;-88
2021/08/09 10:44:37;;;;;;;1.53;1.40;;;34.80;37.80;;;;;;4934705;29;20454;-89
2021/08/09 10:47:03;;;;;;;1.60;1.00;;;33.50;40.10;;;;;;4939192;29;20437;-89
2021/08/09 10:49:59;;;;;;;1.23;1.00;;;34.80;39.20;;;;;;4939907;29;20465;-89
2021/08/09 10:52:45;;;;;;;2.27;1.70;;;36.80;37.50;;;;;;4955127;29;20489;-86
2021/08/09 10:55:46;;;;;;;3.50;1.33;;;34.90;38.50;;;;;;4947104;29;20481;-89
2021/08/09 10:58:51;;;;;;;6.20;1.47;;;33.00;41.20;;;;;;4949063;29;21131;-89
2021/08/09 11:01:22;;;;;;;1.87;1.33;;;31.60;43.70;;;;;;4946650;29;20493;-88
2021/08/09 11:04:17;;;;;;;2.17;1.63;;;30.40;46.50;;;;;;4961632;28;20450;-88
2021/08/09 11:06:52;;;;;;;4.20;2.13;;;28.80;48.80;;;;;;4953903;28;20508;-89
2021/08/09 11:09:44;;;;;;;2.63;1.70;;;29.10;48.00;;;;;;4939976;28;20450;-89
2021/08/09 11:12:17;;;;;;;3.03;1.40;;;29.40;45.80;;;;;;4941855;28;20458;-88
2021/08/09 11:15:26;;;;;;;5.00;2.20;;;29.10;47.30;;;;;;4949047;29;20456;-87
2021/08/09 11:17:58;;;;;;;4.73;3.87;;;28.60;47.80;;;;;;4933810;29;20833;-87
2021/08/09 11:20:27;;;;;;;3.70;3.10;;;28.20;49.10;;;;;;4939607;28;20473;-87
2021/08/09 11:23:10;;;;;;;2.37;2.10;;;29.00;49.00;;;;;;4945559;29;20492;-86
2021/08/09 11:25:40;;;;;;;2.07;1.63;;;30.70;47.00;;;;;;4947362;29;21054;-88
2021/08/09 11:28:10;;;;;;;2.93;2.73;;;33.00;43.80;;;;;;4939875;29;20836;-88
2021/08/09 11:30:48;;;;;;;2.20;2.00;;;34.10;41.00;;;;;;4939875;29;20465;-87
2021/08/09 11:33:20;;;;;;;3.50;2.13;;;33.40;41.70;;;;;;4938960;29;20461;-88
2021/08/09 11:35:48;;;;;;;2.23;1.80;;;32.50;42.80;;;;;;4938680;29;20480;-88
2021/08/09 11:38:17;;;;;;;3.10;1.90;;;31.60;44.00;;;;;;4935143;29;20473;-88
2021/08/09 11:40:45;;;;;;;3.10;1.50;;;30.30;45.40;;;;;;4919756;29;20464;-88
2021/08/09 11:43:14;;;;;;;4.57;1.93;;;29.50;47.60;;;;;;4919854;29;20442;-87
2021/08/09 11:45:41;;;;;;;3.43;2.50;;;29.00;49.30;;;;;;4922169;29;20471;-88
2021/08/09 11:48:09;;;;;;;2.40;1.60;;;30.50;47.70;;;;;;4924993;29;20449;-88
2021/08/09 11:50:37;;;;;;;1.87;1.43;;;33.20;44.00;;;;;;4938522;29;20449;-88
2021/08/09 11:53:05;;;;;;;3.03;1.40;;;35.70;40.60;;;;;;4925954;29;20454;-88
2021/08/09 11:55:34;;;;;;;2.30;1.60;;;37.30;38.40;;;;;;4940852;29;20449;-87
2021/08/09 11:58:01;;;;;;;1.40;1.10;;;36.90;36.70;;;;;;4943250;29;20449;-89
2021/08/09 12:00:39;;;;;;;2.23;1.53;;;35.80;36.80;;;;;;4924175;29;20463;-89
2021/08/09 12:03:16;;;;;;;3.67;2.87;;;35.10;37.80;;;;;;4918934;29;20510;-89
2021/08/09 12:05:43;;;;;;;1.90;1.43;;;35.60;39.00;;;;;;4919129;29;20482;-89
2021/08/09 12:08:10;;;;;;;1.33;1.23;;;36.50;37.80;;;;;;4919240;29;20454;-89
2021/08/09 12:10:39;;;;;;;3.10;1.70;;;36.80;38.30;;;;;;4919650;29;20462;-88
2021/08/09 12:13:22;;;;;;;1.70;1.43;;;38.90;36.70;;;;;;4919143;29;20443;-89
2021/08/09 12:16:13;;;;;;;1.63;1.30;;;39.60;34.80;;;;;;4921617;29;20478;-89
2021/08/09 12:18:41;;;;;;;1.90;1.50;;;40.30;33.80;;;;;;4924518;29;20463;-89
2021/08/09 12:21:12;;;;;;;2.53;1.47;;;40.70;33.70;;;;;;4933518;29;20434;-89
2021/08/09 12:27:35;;;;;;;1.87;1.10;;;40.20;33.40;;;;;;4837882;29;20835;-89
2021/08/09 12:30:47;;;;;;;2.60;1.73;;;41.70;30.60;;;;;;4892664;29;20826;-89
2021/08/09 12:33:14;;;;;;;2.67;1.47;;;40.80;30.30;;;;;;4892507;29;20452;-88
2021/08/09 12:35:42;;;;;;;3.23;1.30;;;39.10;32.00;;;;;;4904398;29;20474;-88
2021/08/09 12:41:30;;;;;;;2.87;1.83;;;36.50;35.10;;;;;;4932081;29;20469;-88
2021/08/09 12:44:13;;;;;;;2.30;1.60;;;34.00;35.10;;;;;;4942348;29;20426;-88
2021/08/09 12:46:40;;;;;;;1.27;1.17;;;31.80;37.90;;;;;;4931926;29;20485;-89
2021/08/09 12:49:06;;;;;;;2.00;1.50;;;30.20;40.40;;;;;;4926576;29;20493;-90
2021/08/09 12:54:56;;;;;;;2.50;1.80;;;29.00;44.00;;;;;;4938769;29;20446;-88
2021/08/09 12:57:23;;;;;;;2.53;2.33;;;29.30;46.10;;;;;;4944820;29;20456;-88
2021/08/09 12:59:57;;;;;;;2.73;1.43;;;29.60;46.20;;;;;;4944724;29;20525;-88
2021/08/09 13:02:24;;;;;;;1.83;1.40;;;31.50;45.00;;;;;;4943710;29;20577;-89
2021/08/09 13:04:51;;;;;;;2.20;1.57;;;33.60;40.70;;;;;;4932430;29;20510;-89
2021/08/09 13:07:17;;;;;;;2.17;1.63;;;33.50;40.50;;;;;;4926562;29;20542;-89
2021/08/09 13:09:44;;;;;;;2.33;1.40;;;32.70;41.00;;;;;;4924554;29;20458;-88
2021/08/09 13:12:11;;;;;;;2.40;1.60;;;32.10;42.30;;;;;;4921692;29;20443;-88
2021/08/09 13:14:38;;;;;;;2.97;1.83;;;31.20;43.50;;;;;;4940107;29;20509;-88
2021/08/09 13:17:06;;;;;;;2.13;1.57;;;30.50;44.80;;;;;;4938876;29;20464;-87
2021/08/09 13:19:33;;;;;;;2.63;2.20;;;29.90;47.30;;;;;;4944169;29;20445;-83
2021/08/09 13:22:00;;;;;;;2.90;1.77;;;29.90;48.20;;;;;;4944455;29;20504;-86
2021/08/09 13:24:26;;;;;;;2.23;1.77;;;31.00;45.70;;;;;;4944408;29;20464;-84
2021/08/09 13:26:53;;;;;;;3.30;1.70;;;31.40;44.60;;;;;;4925081;29;20954;-83
2021/08/09 13:29:22;;;;;;;2.90;2.10;;;32.00;42.70;;;;;;4927377;29;20871;-82
2021/08/09 13:31:49;;;;;;;3.73;1.90;;;31.10;43.90;;;;;;4928843;29;20447;-82